Time;durP1;ratioP1;P1;durP2;ratioP2;P2;SDS_P1;SDS_P2;PMS_P1;PMS_P2;Temp;Humidity;BMP_temperature;BMP_pressure;BME280_temperature;BME280_humidity;BME280_pressure;Samples;Min_cycle;Max_cycle;Signal;HPM_P1;HPM_P2
2020/12/16 00:00:09;;;;;;;62.28;15.15;;;;;;;;;;5057432;28;20075;-80
2020/12/16 00:02:41;;;;;;;67.97;17.27;;;;;;;;;;5057478;28;20059;-80
2020/12/16 00:05:09;;;;;;;67.38;15.82;;;;;;;;;;5053530;28;20037;-80
2020/12/16 00:07:38;;;;;;;48.60;15.15;;;;;;;;;;5038491;28;20077;-80
2020/12/16 00:10:12;;;;;;;58.08;16.90;;;;;;;;;;5037913;28;20104;-80
2020/12/16 00:12:40;;;;;;;70.03;17.77;;;;;;;;;;5037555;28;20098;-80
2020/12/16 00:15:08;;;;;;;46.45;16.00;;;;;;;;;;5037713;28;20493;-81
2020/12/16 00:17:36;;;;;;;57.60;15.77;;;;;;;;;;5055081;28;20050;-80
2020/12/16 00:20:03;;;;;;;57.25;17.13;;;;;;;;;;5049006;28;20083;-81
2020/12/16 00:22:35;;;;;;;55.50;17.10;;;;;;;;;;5043553;28;20064;-81
2020/12/16 00:25:03;;;;;;;59.80;16.10;;;;;;;;;;5057427;28;20130;-80
2020/12/16 00:27:30;;;;;;;52.50;17.45;;;;;;;;;;5049574;28;20056;-81
2020/12/16 00:29:57;;;;;;;58.92;17.40;;;;;;;;;;5048422;28;20080;-81
2020/12/16 00:32:27;;;;;;;68.72;18.27;;;;;;;;;;5038157;28;20461;-81
2020/12/16 00:34:53;;;;;;;50.92;17.58;;;;;;;;;;5050165;28;20049;-81
2020/12/16 00:37:20;;;;;;;59.15;16.55;;;;;;;;;;5057434;28;20088;-81
2020/12/16 00:39:50;;;;;;;54.65;17.58;;;;;;;;;;5057415;28;20128;-81
2020/12/16 00:42:16;;;;;;;73.03;19.35;;;;;;;;;;5057296;28;20051;-80
2020/12/16 00:44:43;;;;;;;62.50;18.75;;;;;;;;;;5039861;28;20091;-81
2020/12/16 00:47:10;;;;;;;72.40;18.92;;;;;;;;;;5072510;28;20045;-81
2020/12/16 00:49:36;;;;;;;75.28;19.50;;;;;;;;;;5038883;28;20049;-82
2020/12/16 00:52:09;;;;;;;60.20;18.27;;;;;;;;;;5036696;28;20068;-80
2020/12/16 00:54:35;;;;;;;67.18;18.83;;;;;;;;;;5037057;28;20096;-80
2020/12/16 00:57:02;;;;;;;77.88;20.13;;;;;;;;;;5050489;28;20102;-80
2020/12/16 00:59:28;;;;;;;61.50;19.75;;;;;;;;;;5058031;28;20076;-81
2020/12/16 01:01:56;;;;;;;75.05;19.95;;;;;;;;;;5057725;28;20052;-81
2020/12/16 01:04:25;;;;;;;82.30;21.65;;;;;;;;;;5052395;28;20131;-82
2020/12/16 01:06:51;;;;;;;79.28;20.85;;;;;;;;;;5040625;28;20512;-80
2020/12/16 01:09:18;;;;;;;103.72;20.45;;;;;;;;;;5036074;28;20041;-81
2020/12/16 01:11:45;;;;;;;67.47;19.83;;;;;;;;;;5051320;28;20143;-81
2020/12/16 01:14:19;;;;;;;71.25;20.20;;;;;;;;;;5054750;28;20084;-81
2020/12/16 01:16:45;;;;;;;67.18;19.77;;;;;;;;;;5045391;28;20518;-81
2020/12/16 01:19:18;;;;;;;85.88;21.52;;;;;;;;;;5036673;28;20481;-81
2020/12/16 01:21:50;;;;;;;92.95;20.85;;;;;;;;;;5054648;28;20087;-81
2020/12/16 01:24:17;;;;;;;66.32;20.33;;;;;;;;;;5054767;28;20102;-81
2020/12/16 01:26:51;;;;;;;87.22;20.48;;;;;;;;;;5055977;28;20041;-81
2020/12/16 01:29:18;;;;;;;72.35;19.80;;;;;;;;;;5056877;28;20048;-81
2020/12/16 01:31:46;;;;;;;92.80;21.48;;;;;;;;;;5059335;28;20413;-81
2020/12/16 01:34:13;;;;;;;70.72;20.38;;;;;;;;;;5049514;28;20400;-80
2020/12/16 01:36:52;;;;;;;102.47;21.98;;;;;;;;;;5056112;28;20060;-80
2020/12/16 01:39:19;;;;;;;80.25;21.85;;;;;;;;;;5056961;28;20104;-80
2020/12/16 01:41:49;;;;;;;78.05;20.25;;;;;;;;;;5056495;28;20643;-80
2020/12/16 01:44:17;;;;;;;113.63;24.63;;;;;;;;;;5056418;28;20427;-81
2020/12/16 01:46:55;;;;;;;75.07;21.23;;;;;;;;;;5062979;28;20102;-80
2020/12/16 01:49:22;;;;;;;108.20;23.20;;;;;;;;;;5055922;28;20128;-80
2020/12/16 01:51:59;;;;;;;115.25;24.58;;;;;;;;;;5073235;28;20146;-80
2020/12/16 01:54:26;;;;;;;77.55;21.55;;;;;;;;;;5072908;28;20080;-80
2020/12/16 01:56:55;;;;;;;67.82;21.17;;;;;;;;;;5055734;28;20167;-80
2020/12/16 01:59:34;;;;;;;78.25;22.50;;;;;;;;;;5073188;28;20123;-80
2020/12/16 02:02:01;;;;;;;63.85;21.33;;;;;;;;;;5073579;28;20704;-80
2020/12/16 02:04:29;;;;;;;89.57;24.30;;;;;;;;;;5041114;28;20103;-81
2020/12/16 02:06:58;;;;;;;90.40;22.75;;;;;;;;;;5071065;28;20082;-80
2020/12/16 02:09:27;;;;;;;80.97;23.75;;;;;;;;;;5055851;28;20523;-81
2020/12/16 02:11:56;;;;;;;75.75;22.27;;;;;;;;;;5052676;28;20048;-80
2020/12/16 02:14:23;;;;;;;78.63;22.27;;;;;;;;;;5070977;28;20052;-80
2020/12/16 02:16:49;;;;;;;89.90;24.50;;;;;;;;;;5069932;28;20528;-81
2020/12/16 02:19:19;;;;;;;77.43;23.27;;;;;;;;;;5071029;28;20095;-80
2020/12/16 02:21:46;;;;;;;82.82;24.13;;;;;;;;;;5015876;28;20825;-81
2020/12/16 02:24:14;;;;;;;147.88;24.83;;;;;;;;;;5043495;28;20045;-81
2020/12/16 02:26:41;;;;;;;107.63;23.33;;;;;;;;;;5050236;28;20323;-81
2020/12/16 02:29:09;;;;;;;71.43;21.63;;;;;;;;;;5053661;28;20045;-81
2020/12/16 02:31:37;;;;;;;73.05;23.00;;;;;;;;;;5035837;28;20053;-80
2020/12/16 02:34:09;;;;;;;90.57;23.02;;;;;;;;;;5054332;28;20106;-80
2020/12/16 02:36:36;;;;;;;75.88;22.70;;;;;;;;;;5042620;28;20087;-80
2020/12/16 02:39:02;;;;;;;88.03;22.27;;;;;;;;;;5056857;28;20471;-81
2020/12/16 02:41:29;;;;;;;90.43;23.83;;;;;;;;;;5038762;28;20107;-81
2020/12/16 02:43:56;;;;;;;99.28;24.98;;;;;;;;;;5053732;28;20072;-80
2020/12/16 02:46:22;;;;;;;114.32;26.05;;;;;;;;;;5047862;28;20160;-81
2020/12/16 02:48:49;;;;;;;108.32;24.83;;;;;;;;;;5056302;28;20049;-81
2020/12/16 02:51:16;;;;;;;106.22;24.17;;;;;;;;;;5073838;28;20143;-81
2020/12/16 02:53:55;;;;;;;115.53;25.05;;;;;;;;;;5073783;28;20550;-81
2020/12/16 02:56:22;;;;;;;82.60;22.90;;;;;;;;;;5055442;28;20045;-81
2020/12/16 02:58:48;;;;;;;100.10;25.98;;;;;;;;;;5054921;28;20587;-82
2020/12/16 03:01:18;;;;;;;80.95;23.38;;;;;;;;;;5055952;28;20052;-81
2020/12/16 03:03:47;;;;;;;96.30;24.60;;;;;;;;;;5056070;28;20048;-81
2020/12/16 03:06:16;;;;;;;98.70;24.95;;;;;;;;;;5073018;28;20076;-82
2020/12/16 03:08:43;;;;;;;84.90;23.33;;;;;;;;;;5054791;28;20044;-81
2020/12/16 03:11:18;;;;;;;75.82;23.73;;;;;;;;;;5054434;28;20079;-82
2020/12/16 03:13:46;;;;;;;71.05;22.23;;;;;;;;;;5044964;28;20127;-82
2020/12/16 03:16:21;;;;;;;96.53;24.13;;;;;;;;;;5038181;28;20084;-82
2020/12/16 03:18:48;;;;;;;91.97;23.48;;;;;;;;;;5036549;28;20076;-82
2020/12/16 03:21:24;;;;;;;95.60;23.77;;;;;;;;;;5050909;28;20067;-81
2020/12/16 03:23:51;;;;;;;81.28;23.10;;;;;;;;;;5056595;28;20072;-82
2020/12/16 03:26:18;;;;;;;96.65;25.15;;;;;;;;;;5055312;28;20075;-81
2020/12/16 03:28:50;;;;;;;81.32;23.63;;;;;;;;;;5055025;28;20465;-81
2020/12/16 03:31:19;;;;;;;89.90;24.85;;;;;;;;;;5051621;28;20052;-80
2020/12/16 03:33:53;;;;;;;85.63;24.58;;;;;;;;;;5053738;28;20045;-80
2020/12/16 03:36:22;;;;;;;89.50;23.77;;;;;;;;;;5038894;28;20064;-80
2020/12/16 03:38:49;;;;;;;96.60;24.83;;;;;;;;;;5038860;28;20080;-81
2020/12/16 03:41:19;;;;;;;104.05;25.35;;;;;;;;;;5038470;28;20045;-81
2020/12/16 03:43:53;;;;;;;105.35;25.33;;;;;;;;;;5044358;28;20049;-81
2020/12/16 03:46:24;;;;;;;98.88;24.20;;;;;;;;;;5076600;28;20501;-81
2020/12/16 03:48:51;;;;;;;94.43;23.15;;;;;;;;;;5076928;28;20067;-80
2020/12/16 03:51:19;;;;;;;88.25;24.52;;;;;;;;;;5058135;28;20102;-81
2020/12/16 03:53:48;;;;;;;123.15;26.35;;;;;;;;;;5036439;28;20053;-81
2020/12/16 03:56:16;;;;;;;101.03;25.77;;;;;;;;;;5018646;28;20438;-80
2020/12/16 03:58:43;;;;;;;143.98;27.52;;;;;;;;;;5018741;28;20061;-81
2020/12/16 04:01:11;;;;;;;112.63;25.08;;;;;;;;;;5018541;28;20087;-81
2020/12/16 04:03:43;;;;;;;119.53;25.98;;;;;;;;;;5053611;28;20135;-80
2020/12/16 04:06:10;;;;;;;121.05;27.10;;;;;;;;;;5045461;28;20048;-81
2020/12/16 04:08:43;;;;;;;108.22;24.42;;;;;;;;;;5050324;28;20045;-81
2020/12/16 04:11:12;;;;;;;90.97;23.90;;;;;;;;;;5060584;28;20383;-81
2020/12/16 04:13:39;;;;;;;138.80;25.90;;;;;;;;;;5049294;28;20440;-81
2020/12/16 04:16:18;;;;;;;110.00;27.52;;;;;;;;;;5057587;28;20537;-81
2020/12/16 04:18:47;;;;;;;93.30;25.52;;;;;;;;;;5038331;28;20056;-81
2020/12/16 04:21:15;;;;;;;105.10;26.80;;;;;;;;;;5056007;28;20107;-81
2020/12/16 04:23:41;;;;;;;108.88;26.65;;;;;;;;;;5055482;28;20045;-81
2020/12/16 04:26:08;;;;;;;95.68;26.35;;;;;;;;;;5037102;28;20084;-81
2020/12/16 04:28:36;;;;;;;103.82;26.05;;;;;;;;;;5037720;28;20063;-81
2020/12/16 04:31:06;;;;;;;93.50;25.77;;;;;;;;;;5042165;28;20087;-81
2020/12/16 04:33:33;;;;;;;117.90;27.55;;;;;;;;;;5075903;28;20049;-81
2020/12/16 04:36:02;;;;;;;105.28;27.45;;;;;;;;;;5076032;28;20058;-81
2020/12/16 04:38:30;;;;;;;110.85;25.63;;;;;;;;;;5064229;28;20056;-81
2020/12/16 04:41:00;;;;;;;111.35;26.30;;;;;;;;;;5038596;28;20048;-81
2020/12/16 04:43:26;;;;;;;117.50;26.25;;;;;;;;;;5056698;28;20060;-82
2020/12/16 04:45:53;;;;;;;105.60;26.48;;;;;;;;;;5041790;28;20471;-81
2020/12/16 04:48:20;;;;;;;93.82;24.85;;;;;;;;;;5065058;28;20140;-81
2020/12/16 04:50:50;;;;;;;109.35;26.98;;;;;;;;;;5062301;28;20041;-81
2020/12/16 04:53:20;;;;;;;110.57;26.33;;;;;;;;;;5038457;28;20045;-81
2020/12/16 04:55:50;;;;;;;98.63;25.75;;;;;;;;;;5047302;28;20059;-81
2020/12/16 04:58:19;;;;;;;110.93;27.88;;;;;;;;;;5044111;28;20048;-81
2020/12/16 05:00:48;;;;;;;118.70;28.42;;;;;;;;;;5055895;28;20044;-81
2020/12/16 05:03:15;;;;;;;99.20;26.20;;;;;;;;;;5038997;28;20095;-81
2020/12/16 05:05:46;;;;;;;98.95;25.58;;;;;;;;;;5043880;28;20052;-81
2020/12/16 05:08:16;;;;;;;103.20;25.38;;;;;;;;;;5044506;28;20454;-81
2020/12/16 05:11:04;;;;;;;103.15;26.00;;;;;;;;;;5037342;28;20037;-81
2020/12/16 05:13:34;;;;;;;125.22;26.33;;;;;;;;;;5046712;28;20516;-82
2020/12/16 05:16:02;;;;;;;83.97;22.80;;;;;;;;;;5051065;28;20689;-82
2020/12/16 05:18:31;;;;;;;95.32;25.48;;;;;;;;;;5041956;28;20048;-82
2020/12/16 05:20:59;;;;;;;104.50;26.77;;;;;;;;;;5051111;28;20049;-82
2020/12/16 05:23:35;;;;;;;94.07;25.58;;;;;;;;;;5037717;28;20040;-81
2020/12/16 05:26:03;;;;;;;99.15;24.60;;;;;;;;;;5063632;28;20052;-81
2020/12/16 05:28:31;;;;;;;109.28;26.38;;;;;;;;;;5055418;28;20055;-83
2020/12/16 05:30:59;;;;;;;97.35;27.80;;;;;;;;;;5042738;28;20098;-82
2020/12/16 05:33:25;;;;;;;96.70;26.92;;;;;;;;;;5038151;28;20548;-82
2020/12/16 05:35:53;;;;;;;97.22;25.42;;;;;;;;;;5037911;28;20072;-82
2020/12/16 05:38:21;;;;;;;94.32;26.23;;;;;;;;;;5048280;28;20477;-82
2020/12/16 05:40:48;;;;;;;102.25;27.40;;;;;;;;;;5058280;28;20060;-82
2020/12/16 05:43:21;;;;;;;120.47;28.20;;;;;;;;;;5052887;28;20049;-83
2020/12/16 05:45:49;;;;;;;105.43;26.83;;;;;;;;;;5038016;28;20695;-83
2020/12/16 05:48:17;;;;;;;98.72;26.98;;;;;;;;;;5040682;28;20096;-83
2020/12/16 05:50:47;;;;;;;109.43;26.33;;;;;;;;;;5048394;28;20187;-83
2020/12/16 05:53:19;;;;;;;111.70;27.02;;;;;;;;;;5043012;28;20060;-83
2020/12/16 05:55:56;;;;;;;104.85;27.08;;;;;;;;;;5039925;28;20075;-83
2020/12/16 05:58:43;;;;;;;;;;;;;;;;;;;;;
2020/12/16 06:01:15;;;;;;;112.82;26.90;;;;;;;;;;5059087;28;20049;-85
2020/12/16 06:03:49;;;;;;;102.95;26.55;;;;;;;;;;5041735;28;20450;-85
2020/12/16 06:06:20;;;;;;;107.10;25.63;;;;;;;;;;5061160;28;20071;-87
2020/12/16 06:08:48;;;;;;;98.53;26.92;;;;;;;;;;5059637;28;20060;-84
2020/12/16 06:11:22;;;;;;;100.63;26.80;;;;;;;;;;5036584;28;20091;-85
2020/12/16 06:13:53;;;;;;;111.82;26.92;;;;;;;;;;5038604;28;20053;-84
2020/12/16 06:16:25;;;;;;;102.25;26.38;;;;;;;;;;5042784;28;20045;-88
2020/12/16 06:19:09;;;;;;;108.55;27.55;;;;;;;;;;5042379;28;20045;-88
2020/12/16 06:21:51;;;;;;;98.07;26.50;;;;;;;;;;5052754;28;20077;-87
2020/12/16 06:24:20;;;;;;;120.38;28.90;;;;;;;;;;5042227;28;20136;-89
2020/12/16 06:26:53;;;;;;;91.75;26.63;;;;;;;;;;5041678;28;20126;-89
2020/12/16 06:29:26;;;;;;;104.22;27.02;;;;;;;;;;5042181;28;20138;-87
2020/12/16 06:31:54;;;;;;;98.30;26.55;;;;;;;;;;5042318;28;20181;-89
2020/12/16 06:34:30;;;;;;;101.95;26.10;;;;;;;;;;5043018;28;20069;-87
2020/12/16 06:37:03;;;;;;;102.45;26.27;;;;;;;;;;5042494;28;20052;-88
2020/12/16 06:39:40;;;;;;;104.88;26.25;;;;;;;;;;5039584;28;20064;-85
2020/12/16 06:45:51;;;;;;;99.80;22.90;;;;;;;;;;5051659;28;20055;-86
2020/12/16 06:48:55;;;;;;;101.72;25.27;;;;;;;;;;5018635;28;20533;-86
2020/12/16 06:51:52;;;;;;;98.45;25.73;;;;;;;;;;5013794;28;20064;-86
2020/12/16 06:54:21;;;;;;;92.63;24.38;;;;;;;;;;5034603;28;20049;-86
2020/12/16 06:57:13;;;;;;;112.95;26.10;;;;;;;;;;5035490;28;20061;-87
2020/12/16 07:00:16;;;;;;;93.75;23.80;;;;;;;;;;5020970;23;20413;-87
2020/12/16 07:02:43;;;;;;;98.68;24.58;;;;;;;;;;5050802;28;20057;-86
2020/12/16 07:05:29;;;;;;;100.30;24.60;;;;;;;;;;5049274;28;20088;-87
2020/12/16 07:07:55;;;;;;;;;;;;;;;;;;5050836;28;20049;-87
2020/12/16 07:10:36;;;;;;;90.15;24.08;;;;;;;;;;5030083;28;19921;-86
2020/12/16 07:13:15;;;;;;;98.47;23.48;;;;;;;;;;5052691;28;20460;-87
2020/12/16 07:19:08;;;;;;;104.13;24.88;;;;;;;;;;5037203;28;20048;-77
2020/12/16 07:21:36;;;;;;;85.65;22.65;;;;;;;;;;5041310;28;20053;-78
2020/12/16 07:24:10;;;;;;;95.70;25.88;;;;;;;;;;5035754;28;20072;-79
2020/12/16 07:26:53;;;;;;;106.25;24.17;;;;;;;;;;5041520;28;20065;-79
2020/12/16 07:29:31;;;;;;;98.47;24.08;;;;;;;;;;5030165;28;20132;-80
2020/12/16 07:32:02;;;;;;;86.35;23.65;;;;;;;;;;5038315;28;20519;-79
2020/12/16 07:34:49;;;;;;;91.53;23.52;;;;;;;;;;5027834;28;20516;-80
2020/12/16 07:37:18;;;;;;;92.57;23.42;;;;;;;;;;5048452;28;20048;-81
2020/12/16 07:39:49;;;;;;;90.90;24.17;;;;;;;;;;5044537;28;20060;-80
2020/12/16 07:42:20;;;;;;;98.97;23.92;;;;;;;;;;5044358;28;20115;-81
2020/12/16 07:44:53;;;;;;;93.72;23.92;;;;;;;;;;5045125;28;20048;-80
2020/12/16 07:47:19;;;;;;;89.82;23.40;;;;;;;;;;5039283;28;20124;-80
2020/12/16 07:49:46;;;;;;;72.78;21.85;;;;;;;;;;5032408;28;20421;-81
2020/12/16 07:52:13;;;;;;;85.70;23.02;;;;;;;;;;5043654;28;20077;-81
2020/12/16 07:54:40;;;;;;;103.00;23.83;;;;;;;;;;5039293;28;20505;-81
2020/12/16 07:57:07;;;;;;;91.10;23.63;;;;;;;;;;5043032;28;20565;-82
2020/12/16 07:59:35;;;;;;;86.03;22.88;;;;;;;;;;5041333;28;20096;-80
2020/12/16 08:02:12;;;;;;;88.72;21.75;;;;;;;;;;5038222;28;20497;-80
2020/12/16 08:04:40;;;;;;;78.85;21.48;;;;;;;;;;5042788;28;20435;-80
2020/12/16 08:07:16;;;;;;;85.40;21.00;;;;;;;;;;5039163;28;20103;-80
2020/12/16 08:09:51;;;;;;;85.90;22.15;;;;;;;;;;5041301;28;20629;-80
2020/12/16 08:12:18;;;;;;;93.60;24.77;;;;;;;;;;5049152;28;20131;-80
2020/12/16 08:14:45;;;;;;;90.93;23.63;;;;;;;;;;5039427;28;20045;-80
2020/12/16 08:17:12;;;;;;;88.43;21.48;;;;;;;;;;5041507;28;20087;-81
2020/12/16 08:19:38;;;;;;;83.13;21.88;;;;;;;;;;5043052;28;20137;-80
2020/12/16 08:22:12;;;;;;;93.10;22.38;;;;;;;;;;5044764;28;20132;-81
2020/12/16 08:24:39;;;;;;;86.25;22.63;;;;;;;;;;5049492;28;20049;-81
2020/12/16 08:34:19;;;;;;;111.25;23.17;;;;;;;;;;5029029;28;20390;-81
2020/12/16 08:40:16;;;;;;;102.03;23.42;;;;;;;;;;5033656;28;20036;-80
2020/12/16 08:42:45;;;;;;;106.55;24.17;;;;;;;;;;5028121;28;20408;-80
2020/12/16 08:45:12;;;;;;;96.75;21.67;;;;;;;;;;5035274;28;20053;-81
2020/12/16 08:47:41;;;;;;;92.07;21.30;;;;;;;;;;5032702;28;20045;-81
2020/12/16 08:50:13;;;;;;;90.13;20.85;;;;;;;;;;5022117;28;20181;-81
2020/12/16 08:52:41;;;;;;;72.63;18.52;;;;;;;;;;5030723;28;20050;-81
2020/12/16 08:55:11;;;;;;;80.00;20.17;;;;;;;;;;5022011;28;20152;-80
2020/12/16 08:57:38;;;;;;;107.07;25.83;;;;;;;;;;5022038;28;20076;-83
2020/12/16 09:00:10;;;;;;;84.15;21.30;;;;;;;;;;5023784;28;20137;-81
2020/12/16 09:02:37;;;;;;;89.38;22.73;;;;;;;;;;5023626;28;20058;-81
2020/12/16 09:05:04;;;;;;;94.70;28.45;;;;;;;;;;5026029;28;20098;-81
2020/12/16 09:07:31;;;;;;;122.60;31.77;;;;;;;;;;5036837;28;20048;-82
2020/12/16 09:09:58;;;;;;;74.63;22.80;;;;;;;;;;5042295;28;20497;-81
2020/12/16 09:12:25;;;;;;;70.82;19.85;;;;;;;;;;5042400;28;20181;-81
2020/12/16 09:14:54;;;;;;;62.53;18.13;;;;;;;;;;5040714;28;20053;-82
2020/12/16 09:17:24;;;;;;;74.05;19.55;;;;;;;;;;5039699;28;20084;-81
2020/12/16 09:19:51;;;;;;;60.03;17.55;;;;;;;;;;5041089;28;20048;-81
2020/12/16 09:22:35;;;;;;;65.47;19.17;;;;;;;;;;5039233;28;20052;-81
2020/12/16 09:25:02;;;;;;;65.60;18.48;;;;;;;;;;5047508;28;20055;-81
2020/12/16 09:27:29;;;;;;;67.20;18.33;;;;;;;;;;5024880;28;20049;-83
2020/12/16 09:29:56;;;;;;;62.28;17.95;;;;;;;;;;5043491;28;20060;-82
2020/12/16 09:32:26;;;;;;;67.28;19.83;;;;;;;;;;5038497;28;20048;-82
2020/12/16 09:34:54;;;;;;;60.70;18.70;;;;;;;;;;5038908;28;20051;-82
2020/12/16 09:37:23;;;;;;;64.13;18.42;;;;;;;;;;5040862;28;20084;-81
2020/12/16 09:39:50;;;;;;;66.05;17.90;;;;;;;;;;5043424;28;20045;-82
2020/12/16 09:42:18;;;;;;;65.40;18.52;;;;;;;;;;5053501;28;20081;-81
2020/12/16 09:44:46;;;;;;;73.82;20.92;;;;;;;;;;5042711;28;20111;-82
2020/12/16 09:47:14;;;;;;;50.95;17.90;;;;;;;;;;5042047;28;20401;-81
2020/12/16 09:49:42;;;;;;;54.38;18.23;;;;;;;;;;5033828;28;20108;-81
2020/12/16 09:52:28;;;;;;;53.42;17.70;;;;;;;;;;5047202;28;20081;-82
2020/12/16 09:54:55;;;;;;;56.92;18.10;;;;;;;;;;5024539;28;20083;-82
2020/12/16 09:57:23;;;;;;;53.78;17.33;;;;;;;;;;5052799;28;20099;-82
2020/12/16 09:59:50;;;;;;;58.67;18.17;;;;;;;;;;5034010;28;20095;-81
2020/12/16 10:02:18;;;;;;;55.95;18.23;;;;;;;;;;5037902;28;20148;-82
2020/12/16 10:04:45;;;;;;;52.22;17.33;;;;;;;;;;5035677;28;20063;-81
2020/12/16 10:07:13;;;;;;;58.60;19.02;;;;;;;;;;5038612;28;20133;-82
2020/12/16 10:09:40;;;;;;;58.80;18.15;;;;;;;;;;5036210;28;20486;-83
2020/12/16 10:12:07;;;;;;;44.15;16.70;;;;;;;;;;5034419;28;20168;-84
2020/12/16 10:14:33;;;;;;;63.45;18.88;;;;;;;;;;5028365;28;20056;-84
2020/12/16 10:17:10;;;;;;;53.90;18.10;;;;;;;;;;5047302;28;20049;-83
2020/12/16 10:19:39;;;;;;;53.33;17.58;;;;;;;;;;5049996;28;20140;-86
2020/12/16 10:22:07;;;;;;;55.65;17.58;;;;;;;;;;5051551;28;20080;-86
2020/12/16 10:24:34;;;;;;;48.75;17.02;;;;;;;;;;5046989;28;20453;-85
2020/12/16 10:27:02;;;;;;;50.65;17.67;;;;;;;;;;5037801;28;20391;-85
2020/12/16 10:29:32;;;;;;;50.63;17.48;;;;;;;;;;5038884;28;20813;-85
2020/12/16 10:31:59;;;;;;;50.03;16.90;;;;;;;;;;5049370;28;20072;-86
2020/12/16 10:34:26;;;;;;;59.10;18.55;;;;;;;;;;5037047;28;20088;-85
2020/12/16 10:36:53;;;;;;;44.70;16.58;;;;;;;;;;5029306;28;20655;-85
2020/12/16 10:39:21;;;;;;;48.92;17.50;;;;;;;;;;5028826;28;20132;-89
2020/12/16 10:41:55;;;;;;;56.65;21.00;;;;;;;;;;5035803;28;20053;-88
2020/12/16 10:44:22;;;;;;;54.35;20.20;;;;;;;;;;5035662;28;20057;-84
2020/12/16 10:46:50;;;;;;;60.50;23.38;;;;;;;;;;5051390;28;20481;-84
2020/12/16 10:49:17;;;;;;;54.88;22.52;;;;;;;;;;5052121;28;20099;-84
2020/12/16 10:51:44;;;;;;;65.10;22.33;;;;;;;;;;5048655;28;20145;-84
2020/12/16 10:54:11;;;;;;;55.13;20.38;;;;;;;;;;5051015;28;20787;-84
2020/12/16 10:56:37;;;;;;;58.70;21.00;;;;;;;;;;5050064;28;20140;-84
2020/12/16 10:59:04;;;;;;;59.92;22.30;;;;;;;;;;5051788;28;20557;-83
2020/12/16 11:01:38;;;;;;;63.85;22.52;;;;;;;;;;5050344;28;20056;-83
2020/12/16 11:04:07;;;;;;;59.60;22.60;;;;;;;;;;5051009;28;20268;-83
2020/12/16 11:06:43;;;;;;;61.67;22.38;;;;;;;;;;5051214;28;20413;-84
2020/12/16 11:09:10;;;;;;;59.65;21.20;;;;;;;;;;5050857;28;20079;-83
2020/12/16 11:11:41;;;;;;;56.80;20.77;;;;;;;;;;5050341;28;20113;-84
2020/12/16 11:14:08;;;;;;;54.83;20.67;;;;;;;;;;5017921;28;20460;-83
2020/12/16 11:16:35;;;;;;;52.05;19.50;;;;;;;;;;5052651;28;20492;-83
2020/12/16 11:19:02;;;;;;;59.35;20.42;;;;;;;;;;5050460;28;20448;-84
2020/12/16 11:21:28;;;;;;;60.45;20.92;;;;;;;;;;5050574;28;20596;-84
2020/12/16 11:23:55;;;;;;;57.90;20.40;;;;;;;;;;5049469;28;20087;-83
2020/12/16 11:26:22;;;;;;;56.70;19.38;;;;;;;;;;5051221;28;20131;-83
2020/12/16 11:29:03;;;;;;;57.83;19.75;;;;;;;;;;5052522;28;20060;-83
2020/12/16 11:31:31;;;;;;;63.35;19.95;;;;;;;;;;5051646;28;20451;-83
2020/12/16 11:33:58;;;;;;;52.15;19.92;;;;;;;;;;5050880;28;20106;-84
2020/12/16 11:36:24;;;;;;;64.60;20.90;;;;;;;;;;5052563;28;20056;-83
2020/12/16 11:38:51;;;;;;;53.63;19.02;;;;;;;;;;5050644;28;20466;-83
2020/12/16 11:41:18;;;;;;;59.10;19.85;;;;;;;;;;5048967;28;20087;-83
2020/12/16 11:43:44;;;;;;;58.63;20.17;;;;;;;;;;5050733;28;20053;-81
2020/12/16 11:46:11;;;;;;;56.45;20.23;;;;;;;;;;5127094;22;20045;-80
2020/12/16 11:48:38;;;;;;;56.45;20.23;;;;;;;;;;5028722;28;20081;-81
2020/12/16 11:51:04;;;;;;;54.92;19.67;;;;;;;;;;5028875;28;20426;-81
2020/12/16 11:53:31;;;;;;;55.00;19.08;;;;;;;;;;5029621;28;20144;-81
2020/12/16 11:55:59;;;;;;;47.80;17.52;;;;;;;;;;5012622;28;20055;-81
2020/12/16 11:58:29;;;;;;;50.85;18.48;;;;;;;;;;5030373;28;20052;-80
2020/12/16 12:00:55;;;;;;;50.38;18.13;;;;;;;;;;5031557;28;20388;-80
2020/12/16 12:03:22;;;;;;;50.75;18.77;;;;;;;;;;5012945;28;20049;-81
2020/12/16 12:05:49;;;;;;;50.97;17.67;;;;;;;;;;5013517;28;20051;-82
2020/12/16 12:08:15;;;;;;;58.28;19.33;;;;;;;;;;5012928;28;20069;-81
2020/12/16 12:10:42;;;;;;;58.28;20.02;;;;;;;;;;5012835;28;20081;-81
2020/12/16 12:13:08;;;;;;;58.95;19.55;;;;;;;;;;5012393;28;20128;-81
2020/12/16 12:15:35;;;;;;;56.13;19.70;;;;;;;;;;5013067;28;20132;-81
2020/12/16 12:18:02;;;;;;;53.33;20.27;;;;;;;;;;5012924;28;20053;-81
2020/12/16 12:20:29;;;;;;;63.08;21.15;;;;;;;;;;5012423;28;20055;-81
2020/12/16 12:22:55;;;;;;;69.95;22.33;;;;;;;;;;5011429;28;20137;-81
2020/12/16 12:25:22;;;;;;;65.25;22.02;;;;;;;;;;5029124;28;20073;-81
2020/12/16 12:27:49;;;;;;;65.63;23.40;;;;;;;;;;5011780;28;20103;-81
2020/12/16 12:30:16;;;;;;;65.22;23.75;;;;;;;;;;5012103;28;20277;-81
2020/12/16 12:32:43;;;;;;;60.75;21.48;;;;;;;;;;5011756;28;20077;-81
2020/12/16 12:35:09;;;;;;;60.25;22.27;;;;;;;;;;5011771;28;20156;-81
2020/12/16 12:37:36;;;;;;;59.15;21.92;;;;;;;;;;5029982;28;20442;-81
2020/12/16 12:40:03;;;;;;;59.90;21.52;;;;;;;;;;5012143;28;20164;-81
2020/12/16 12:42:30;;;;;;;53.85;20.70;;;;;;;;;;5011875;28;20053;-81
2020/12/16 12:44:56;;;;;;;58.50;20.60;;;;;;;;;;5011487;28;20064;-81
2020/12/16 12:47:23;;;;;;;57.40;21.15;;;;;;;;;;5010515;28;20357;-81
2020/12/16 12:49:50;;;;;;;56.33;20.50;;;;;;;;;;5028667;28;20133;-81
2020/12/16 12:52:16;;;;;;;61.95;20.88;;;;;;;;;;5011778;28;20526;-81
2020/12/16 12:54:43;;;;;;;60.67;20.92;;;;;;;;;;5027751;28;20410;-81
2020/12/16 12:57:10;;;;;;;58.08;20.50;;;;;;;;;;5028316;28;20498;-81
2020/12/16 12:59:36;;;;;;;58.03;21.20;;;;;;;;;;5029691;28;20088;-81
2020/12/16 13:02:03;;;;;;;62.83;21.02;;;;;;;;;;5031342;28;20045;-81
2020/12/16 13:04:33;;;;;;;53.72;20.05;;;;;;;;;;5028815;28;20088;-82
2020/12/16 13:06:59;;;;;;;58.70;21.45;;;;;;;;;;5029736;28;20338;-81
2020/12/16 13:09:26;;;;;;;55.72;22.48;;;;;;;;;;5019907;28;20041;-81
2020/12/16 13:11:52;;;;;;;57.53;21.48;;;;;;;;;;5029373;28;20141;-81
2020/12/16 13:14:19;;;;;;;60.15;21.10;;;;;;;;;;5028319;28;20359;-81
2020/12/16 13:16:46;;;;;;;59.17;21.85;;;;;;;;;;5011146;28;20431;-81
2020/12/16 13:19:16;;;;;;;63.25;22.50;;;;;;;;;;5028556;28;20049;-82
2020/12/16 13:21:47;;;;;;;53.85;21.10;;;;;;;;;;5027895;28;20631;-81
2020/12/16 13:24:14;;;;;;;61.80;22.55;;;;;;;;;;5011238;28;20049;-82
2020/12/16 13:26:42;;;;;;;63.85;21.08;;;;;;;;;;5028265;28;20475;-80
2020/12/16 13:29:08;;;;;;;62.20;21.90;;;;;;;;;;5029841;28;20407;-81
2020/12/16 13:31:37;;;;;;;57.90;21.83;;;;;;;;;;5029046;28;20050;-81
2020/12/16 13:34:04;;;;;;;59.42;21.20;;;;;;;;;;5011531;28;20140;-81
2020/12/16 13:36:30;;;;;;;60.55;20.65;;;;;;;;;;5027503;28;20061;-81
2020/12/16 13:38:57;;;;;;;53.10;20.48;;;;;;;;;;5027726;28;20151;-81
2020/12/16 13:41:25;;;;;;;52.90;19.92;;;;;;;;;;5010386;28;20134;-80
2020/12/16 13:43:52;;;;;;;55.63;20.23;;;;;;;;;;5027795;28;20077;-80
2020/12/16 13:46:19;;;;;;;51.05;19.83;;;;;;;;;;5027738;28;20038;-81
2020/12/16 13:48:46;;;;;;;47.97;19.02;;;;;;;;;;5009848;28;20132;-80
2020/12/16 13:51:12;;;;;;;45.63;18.67;;;;;;;;;;5028260;28;20107;-80
2020/12/16 13:53:39;;;;;;;50.70;18.00;;;;;;;;;;5011193;28;20061;-80
2020/12/16 13:56:06;;;;;;;43.58;18.65;;;;;;;;;;5029446;28;20053;-80
2020/12/16 13:58:32;;;;;;;42.10;16.23;;;;;;;;;;5028676;28;20108;-80
2020/12/16 14:01:00;;;;;;;50.88;18.98;;;;;;;;;;5009312;28;20489;-80
2020/12/16 14:03:27;;;;;;;45.05;17.98;;;;;;;;;;5009420;28;20139;-80
2020/12/16 14:05:53;;;;;;;49.35;19.30;;;;;;;;;;5028497;28;20406;-81
2020/12/16 14:08:20;;;;;;;46.90;19.77;;;;;;;;;;5011196;28;20465;-80
2020/12/16 14:10:47;;;;;;;46.13;17.67;;;;;;;;;;5027704;28;20041;-80
2020/12/16 14:13:13;;;;;;;48.05;18.92;;;;;;;;;;5009630;28;20103;-80
2020/12/16 14:15:40;;;;;;;42.25;17.27;;;;;;;;;;5010335;28;20076;-80
2020/12/16 14:18:06;;;;;;;49.60;18.27;;;;;;;;;;5010376;28;20088;-81
2020/12/16 14:20:33;;;;;;;57.45;20.73;;;;;;;;;;5028470;28;20140;-81
2020/12/16 14:23:00;;;;;;;47.65;19.02;;;;;;;;;;5010054;28;20053;-80
2020/12/16 14:25:27;;;;;;;48.95;20.17;;;;;;;;;;5027796;28;20136;-80
2020/12/16 14:27:53;;;;;;;56.25;21.45;;;;;;;;;;5009981;28;20107;-81
2020/12/16 14:30:20;;;;;;;53.38;20.45;;;;;;;;;;5027717;28;20049;-80
2020/12/16 14:32:47;;;;;;;51.80;20.88;;;;;;;;;;5027284;28;20516;-81
2020/12/16 14:35:14;;;;;;;59.72;21.30;;;;;;;;;;5027654;28;20099;-81
2020/12/16 14:37:40;;;;;;;61.42;20.77;;;;;;;;;;5009482;28;20069;-81
2020/12/16 14:40:07;;;;;;;57.42;21.17;;;;;;;;;;5010641;28;20455;-81
2020/12/16 14:42:34;;;;;;;60.65;22.35;;;;;;;;;;5029052;28;20127;-81
2020/12/16 14:45:00;;;;;;;58.13;20.77;;;;;;;;;;5028563;28;20065;-81